Pleasant City, Ohio
Current Conditions -  °F | °C
As of 4:53 PM on Saturday 25 Oct 2014 (Local Time) from KZZV Reporting Station
Clear Clear  
Wind Chill: 68°   Ceiling: Unl
Heat Index: 68°   Visibility: 10mi
Dew Point: 53°   Wind: 16mph
Humidity: 59%   Direction: 260°W
Pressure: 29.83"   Gusts: 23mph
Location:  39.9°N, 81.55°W
Report Text: KZZV 252053Z AUTO 26014G20KT 10SM CLR 20/12 A2983 RMK AO2 SLP102 T02000117 56011
Loading
Personal Weather Stations






























Interactive Weather Map
Tropical Storm Tracking
New forecast layout! Learn more

10-Day Weather Forecast

Advertisements
Track Severe Weather on mobile